Terminal Aerodrome Forecast
Issued by NWS

Home | Current Version | Previous Version | Text Only | Print | Product List | Glossary Off
Versions: 1 2 3 4 5 6 7 8 9 10 11 12 13 14 15 16 17

000
FTUS43 KMPX 221500 AAA
TAFRWF
TAF AMD
KRWF 221521Z 2215/2312 16021G29KT P6SM SCT040 BKN090
     FM222200 17016KT P6SM SCT020 BKN060
     FM230100 17010KT 4SM -SHRA BR BKN020 OVC030
     FM230500 19008KT 6SM BR SCT020 BKN040
     FM230900 24005KT 4SM BR FEW030=

USA.gov is the U.S. government's official web portal to all federal, state and local government web resources and services.